Time;durP1;ratioP1;P1;durP2;ratioP2;P2;SDS_P1;SDS_P2;PMS_P1;PMS_P2;Temp;Humidity;BMP_temperature;BMP_pressure;BME280_temperature;BME280_humidity;BME280_pressure;Samples;Min_cycle;Max_cycle;Signal;HPM_P1;HPM_P2
2021/03/29 00:01:23;;;;;;;12.95;7.07;;;27.00;91.70;;;;;;5045009;28;20026;-43
2021/03/29 00:03:49;;;;;;;14.63;6.72;;;27.00;91.80;;;;;;5043447;28;20021;-45
2021/03/29 00:06:17;;;;;;;14.57;6.50;;;27.00;91.80;;;;;;5044590;28;20025;-45
2021/03/29 00:08:46;;;;;;;11.15;7.32;;;27.00;91.80;;;;;;5044259;28;20014;-46
2021/03/29 00:11:13;;;;;;;14.73;7.38;;;27.00;91.80;;;;;;5042610;28;20097;-45
2021/03/29 00:13:40;;;;;;;14.18;7.95;;;27.00;91.90;;;;;;5043920;28;20021;-43
2021/03/29 00:16:08;;;;;;;16.17;6.97;;;27.00;91.90;;;;;;5044350;28;20021;-46
2021/03/29 00:18:35;;;;;;;12.20;7.07;;;27.00;91.90;;;;;;5044225;28;20029;-47
2021/03/29 00:21:05;;;;;;;13.30;6.75;;;27.00;92.00;;;;;;5042979;28;20324;-47
2021/03/29 00:23:33;;;;;;;13.32;6.60;;;27.00;92.00;;;;;;5043696;28;20025;-48
2021/03/29 00:26:00;;;;;;;17.73;6.72;;;26.90;91.90;;;;;;5044186;28;20257;-50
2021/03/29 00:28:27;;;;;;;15.35;5.93;;;26.90;91.90;;;;;;5044685;28;20064;-45
2021/03/29 00:30:54;;;;;;;10.38;6.50;;;27.00;91.90;;;;;;5043890;28;20045;-51
2021/03/29 00:33:23;;;;;;;18.88;7.65;;;26.90;91.80;;;;;;5042419;28;20030;-44
2021/03/29 00:35:51;;;;;;;14.60;7.68;;;26.90;91.90;;;;;;5043888;28;20046;-46
2021/03/29 00:38:19;;;;;;;15.07;7.50;;;26.90;92.00;;;;;;5042463;28;20013;-44
2021/03/29 00:40:55;;;;;;;13.88;7.88;;;26.90;91.90;;;;;;5044011;28;20183;-46
2021/03/29 00:43:28;;;;;;;17.77;9.15;;;26.90;91.90;;;;;;5042594;28;20017;-44
2021/03/29 00:45:57;;;;;;;13.70;9.25;;;26.90;92.00;;;;;;5043957;28;20059;-44
2021/03/29 00:48:26;;;;;;;18.65;8.98;;;26.90;92.20;;;;;;5043693;28;20017;-45
2021/03/29 00:51:07;;;;;;;13.15;7.68;;;26.90;92.30;;;;;;5043840;28;20025;-47
2021/03/29 00:53:36;;;;;;;16.67;7.88;;;26.90;92.40;;;;;;5043620;28;20017;-44
2021/03/29 00:56:03;;;;;;;13.38;6.85;;;26.90;92.20;;;;;;5043901;28;20034;-44
2021/03/29 00:58:31;;;;;;;12.43;6.85;;;26.90;92.30;;;;;;5043430;28;20013;-50
2021/03/29 01:01:06;;;;;;;15.30;6.15;;;26.80;92.20;;;;;;5042724;28;20045;-45
2021/03/29 01:03:35;;;;;;;11.27;5.45;;;26.80;92.20;;;;;;5042341;28;20063;-46
2021/03/29 01:06:08;;;;;;;19.85;5.68;;;26.80;92.00;;;;;;5044164;28;20056;-50
2021/03/29 01:08:37;;;;;;;10.10;4.30;;;26.80;92.00;;;;;;5043590;28;20040;-44
2021/03/29 01:11:06;;;;;;;8.52;4.38;;;26.80;91.90;;;;;;5043735;28;20033;-48
2021/03/29 01:13:35;;;;;;;11.43;4.38;;;26.80;91.90;;;;;;5042771;28;20041;-47
2021/03/29 01:16:06;;;;;;;9.93;4.13;;;26.80;91.60;;;;;;5043968;28;20297;-50
2021/03/29 01:18:34;;;;;;;13.27;4.25;;;26.70;91.40;;;;;;5042070;28;20021;-45
2021/03/29 01:21:22;;;;;;;11.40;4.22;;;26.70;91.40;;;;;;5043680;28;20028;-51
2021/03/29 01:23:53;;;;;;;10.30;3.90;;;26.70;91.40;;;;;;5045153;28;20066;-48
2021/03/29 01:26:37;;;;;;;18.58;4.57;;;26.70;91.30;;;;;;5047583;28;20029;-44
2021/03/29 01:29:04;;;;;;;18.80;4.20;;;26.70;91.30;;;;;;5046785;28;20049;-45
2021/03/29 01:31:32;;;;;;;13.75;4.22;;;26.70;91.20;;;;;;5047347;28;20092;-50
2021/03/29 01:33:59;;;;;;;10.25;4.15;;;26.70;90.90;;;;;;5046668;28;20258;-47
2021/03/29 01:36:28;;;;;;;14.52;4.78;;;26.70;91.00;;;;;;5047054;28;20025;-44
2021/03/29 01:38:55;;;;;;;10.45;5.50;;;26.70;91.10;;;;;;5045556;28;20029;-45
2021/03/29 01:41:22;;;;;;;11.40;4.72;;;26.70;91.10;;;;;;5046641;28;20056;-43
2021/03/29 01:43:50;;;;;;;15.00;5.40;;;26.70;91.00;;;;;;5045294;28;20030;-44
2021/03/29 01:46:17;;;;;;;11.60;6.35;;;26.70;90.90;;;;;;5046930;28;20014;-44
2021/03/29 01:48:45;;;;;;;8.95;5.75;;;26.60;90.60;;;;;;5046342;28;20083;-47
2021/03/29 01:51:15;;;;;;;11.30;6.03;;;26.70;90.20;;;;;;5046914;28;20419;-49
2021/03/29 01:53:44;;;;;;;12.70;5.63;;;26.70;90.30;;;;;;5047016;28;20436;-44
2021/03/29 01:56:13;;;;;;;13.43;4.80;;;26.70;90.40;;;;;;5046652;28;20018;-44
2021/03/29 01:58:40;;;;;;;11.20;5.70;;;26.70;90.20;;;;;;5046840;28;20021;-44
2021/03/29 02:01:09;;;;;;;13.77;6.00;;;26.70;90.10;;;;;;5046044;28;20024;-46
2021/03/29 02:03:37;;;;;;;10.70;5.78;;;26.70;90.10;;;;;;5045802;28;20368;-44
2021/03/29 02:06:04;;;;;;;8.82;5.25;;;26.70;89.80;;;;;;5046467;28;20032;-43
2021/03/29 02:08:34;;;;;;;14.27;5.60;;;26.70;89.70;;;;;;5046400;28;20021;-41
2021/03/29 02:11:01;;;;;;;13.15;5.60;;;26.70;89.40;;;;;;5044861;28;20301;-43
2021/03/29 02:13:31;;;;;;;9.00;5.97;;;26.70;89.40;;;;;;5046287;28;20032;-44
2021/03/29 02:16:01;;;;;;;11.35;5.47;;;26.70;89.10;;;;;;5046396;28;20089;-46
2021/03/29 02:18:32;;;;;;;9.80;5.20;;;26.70;88.60;;;;;;5046025;28;20021;-42
2021/03/29 02:21:02;;;;;;;10.95;5.32;;;26.70;87.60;;;;;;5046236;28;20030;-43
2021/03/29 02:23:30;;;;;;;9.98;5.53;;;26.60;87.90;;;;;;5046122;28;20017;-43
2021/03/29 02:25:59;;;;;;;11.90;7.53;;;26.70;87.90;;;;;;5046113;28;20063;-44
2021/03/29 02:28:26;;;;;;;10.43;7.55;;;26.60;87.60;;;;;;5044988;28;20340;-45
2021/03/29 02:30:54;;;;;;;11.05;7.05;;;26.60;87.90;;;;;;5046417;28;20092;-47
2021/03/29 02:33:21;;;;;;;11.57;6.20;;;26.60;88.20;;;;;;5045406;28;20044;-43
2021/03/29 02:35:49;;;;;;;14.82;6.78;;;26.60;87.90;;;;;;5045708;28;20040;-44
2021/03/29 02:38:20;;;;;;;11.65;7.30;;;26.60;88.50;;;;;;5045771;28;20017;-44
2021/03/29 02:40:51;;;;;;;16.58;7.60;;;26.60;89.30;;;;;;5046120;28;20089;-48
2021/03/29 02:43:20;;;;;;;13.73;6.93;;;26.60;89.60;;;;;;5045742;28;20014;-44
2021/03/29 02:46:06;;;;;;;12.48;7.35;;;26.60;89.40;;;;;;5045822;28;20337;-49
2021/03/29 02:48:41;;;;;;;10.68;6.85;;;26.50;89.20;;;;;;5044154;28;20225;-46
2021/03/29 02:51:12;;;;;;;11.70;7.07;;;26.50;89.10;;;;;;5045567;28;20033;-43
2021/03/29 02:53:44;;;;;;;15.82;7.30;;;26.60;88.70;;;;;;5044543;28;20093;-43
2021/03/29 02:56:18;;;;;;;15.27;6.32;;;26.50;88.30;;;;;;5045575;28;20025;-44
2021/03/29 02:58:49;;;;;;;13.02;6.75;;;26.50;88.00;;;;;;5046133;28;20022;-46
2021/03/29 03:01:16;;;;;;;12.38;5.90;;;26.50;88.20;;;;;;5044941;28;20213;-43
2021/03/29 03:03:45;;;;;;;9.80;6.00;;;26.50;87.80;;;;;;5045186;28;20010;-50
2021/03/29 03:06:13;;;;;;;12.07;6.32;;;26.50;87.60;;;;;;5046036;28;20021;-43
2021/03/29 03:08:40;;;;;;;11.38;7.00;;;26.50;87.60;;;;;;5045243;28;20029;-44
2021/03/29 03:11:11;;;;;;;19.55;10.32;;;26.50;87.70;;;;;;5045732;28;20049;-46
2021/03/29 03:13:39;;;;;;;20.25;10.38;;;26.40;87.30;;;;;;5044003;28;20064;-44
2021/03/29 03:16:07;;;;;;;13.82;10.77;;;26.40;88.20;;;;;;5045418;28;20033;-47
2021/03/29 03:18:34;;;;;;;12.07;9.07;;;26.40;87.40;;;;;;5045204;28;20301;-48
2021/03/29 03:21:01;;;;;;;11.48;7.95;;;26.40;87.10;;;;;;5045368;28;20048;-45
2021/03/29 03:23:27;;;;;;;11.85;7.45;;;26.40;86.30;;;;;;5044955;28;20014;-44
2021/03/29 03:25:54;;;;;;;10.68;6.78;;;26.40;87.00;;;;;;5045075;28;20049;-48
2021/03/29 03:28:24;;;;;;;15.55;7.75;;;26.50;86.60;;;;;;5044710;28;20084;-45
2021/03/29 03:30:54;;;;;;;12.60;7.38;;;26.40;86.50;;;;;;5044942;28;20040;-45
2021/03/29 03:33:24;;;;;;;13.48;6.93;;;26.40;86.30;;;;;;5044627;28;20328;-48
2021/03/29 03:35:52;;;;;;;12.55;6.38;;;26.40;86.50;;;;;;5044800;28;20044;-47
2021/03/29 03:38:25;;;;;;;12.63;6.22;;;26.40;85.70;;;;;;5044614;28;20197;-48
2021/03/29 03:40:58;;;;;;;13.40;5.82;;;26.40;85.60;;;;;;5044769;28;20029;-47
2021/03/29 03:43:27;;;;;;;8.13;5.68;;;26.40;85.60;;;;;;5044584;28;20025;-47
2021/03/29 03:46:05;;;;;;;8.38;5.65;;;26.40;85.60;;;;;;5044364;28;20056;-47
2021/03/29 03:48:33;;;;;;;11.95;5.93;;;26.40;85.30;;;;;;5044673;28;20310;-49
2021/03/29 03:51:00;;;;;;;12.73;6.68;;;26.40;84.90;;;;;;5044586;28;20035;-43
2021/03/29 03:53:29;;;;;;;12.57;6.22;;;26.40;85.00;;;;;;5043299;28;20033;-45
2021/03/29 03:55:58;;;;;;;13.95;5.78;;;26.40;84.80;;;;;;5044537;28;20026;-47
2021/03/29 03:58:29;;;;;;;10.98;6.00;;;26.40;84.40;;;;;;5044091;28;20205;-43
2021/03/29 04:00:56;;;;;;;9.55;5.35;;;26.40;84.20;;;;;;5044662;28;20025;-44
2021/03/29 04:03:28;;;;;;;6.40;4.93;;;26.40;84.30;;;;;;5044840;28;20080;-49
2021/03/29 04:05:56;;;;;;;12.85;5.20;;;26.40;84.00;;;;;;5044198;28;20045;-43
2021/03/29 04:08:23;;;;;;;10.60;5.57;;;26.40;83.80;;;;;;5044323;28;20021;-49
2021/03/29 04:10:55;;;;;;;8.52;5.50;;;26.40;83.80;;;;;;5044498;28;20190;-43
2021/03/29 04:13:27;;;;;;;;;;;26.40;83.60;;;;;;5044618;28;20017;-44
2021/03/29 04:16:00;;;;;;;8.52;4.95;;;26.40;83.70;;;;;;5044388;28;19992;-50
2021/03/29 04:18:26;;;;;;;11.48;5.55;;;26.40;83.90;;;;;;5043945;28;20081;-43
2021/03/29 04:20:54;;;;;;;9.77;5.00;;;26.40;83.90;;;;;;5044315;28;20063;-43
2021/03/29 04:23:23;;;;;;;11.30;5.00;;;26.40;83.80;;;;;;5044107;28;20302;-45
2021/03/29 04:25:53;;;;;;;12.00;4.70;;;26.40;83.90;;;;;;5044081;28;20039;-44
2021/03/29 04:28:20;;;;;;;10.15;5.55;;;26.40;83.60;;;;;;5043986;28;20085;-46
2021/03/29 04:30:47;;;;;;;9.07;4.90;;;26.40;83.90;;;;;;5044504;28;20033;-43
2021/03/29 04:33:14;;;;;;;14.38;5.28;;;26.40;84.20;;;;;;5043774;28;20256;-44
2021/03/29 04:35:41;;;;;;;10.82;4.70;;;26.40;83.90;;;;;;5043649;28;20029;-43
2021/03/29 04:38:08;;;;;;;11.32;5.30;;;26.40;84.00;;;;;;5043860;28;20067;-45
2021/03/29 04:40:35;;;;;;;9.38;4.90;;;26.40;83.80;;;;;;5043911;28;20025;-43
2021/03/29 04:43:01;;;;;;;11.00;5.35;;;26.40;83.70;;;;;;5043706;28;20093;-46
2021/03/29 04:45:28;;;;;;;10.30;5.38;;;26.40;83.40;;;;;;5043903;28;20033;-42
2021/03/29 04:47:55;;;;;;;8.90;4.60;;;26.40;83.40;;;;;;5043895;28;20059;-47
2021/03/29 04:50:24;;;;;;;8.70;4.90;;;26.40;83.30;;;;;;5044282;28;20075;-50
2021/03/29 04:52:51;;;;;;;9.35;5.00;;;26.40;83.50;;;;;;5044108;28;20022;-46
2021/03/29 04:55:19;;;;;;;8.95;4.85;;;26.40;84.10;;;;;;5044481;28;20311;-46
2021/03/29 04:57:46;;;;;;;11.27;5.45;;;26.40;83.70;;;;;;5045053;28;20116;-45
2021/03/29 05:00:14;;;;;;;7.10;5.10;;;26.40;84.00;;;;;;5047938;28;20317;-45
2021/03/29 05:02:40;;;;;;;9.55;5.13;;;26.40;84.00;;;;;;5047493;28;20306;-45
2021/03/29 05:05:09;;;;;;;11.40;5.75;;;26.40;83.60;;;;;;5047176;28;20035;-52
2021/03/29 05:07:39;;;;;;;7.75;4.97;;;26.40;84.20;;;;;;5047891;28;20067;-46
2021/03/29 05:10:13;;;;;;;6.60;4.50;;;26.40;84.10;;;;;;5048414;28;20093;-42
2021/03/29 05:12:44;;;;;;;8.10;5.35;;;26.50;84.00;;;;;;5047807;28;20022;-49
2021/03/29 05:15:12;;;;;;;9.43;5.60;;;26.40;83.60;;;;;;5047355;28;20025;-47
2021/03/29 05:17:38;;;;;;;6.65;5.05;;;26.40;84.20;;;;;;5047818;28;20077;-51
2021/03/29 05:20:07;;;;;;;6.45;5.60;;;26.50;84.50;;;;;;5047829;28;20048;-47
2021/03/29 05:22:34;;;;;;;8.55;5.30;;;26.40;84.90;;;;;;5047800;28;20072;-43
2021/03/29 05:25:01;;;;;;;8.05;5.57;;;26.40;84.90;;;;;;5047083;28;20025;-46
2021/03/29 05:27:27;;;;;;;9.18;5.68;;;26.40;84.90;;;;;;5047080;28;20021;-42
2021/03/29 05:29:54;;;;;;;9.88;5.82;;;26.40;84.50;;;;;;5047262;28;20030;-44
2021/03/29 05:32:26;;;;;;;9.43;5.60;;;26.40;84.30;;;;;;5047319;28;20329;-44
2021/03/29 05:34:55;;;;;;;10.43;5.25;;;26.40;84.40;;;;;;5047068;28;20335;-45
2021/03/29 05:37:26;;;;;;;10.20;5.70;;;26.40;84.20;;;;;;5046934;28;20029;-48
2021/03/29 05:39:55;;;;;;;10.35;5.45;;;26.30;84.10;;;;;;5047209;28;20313;-44
2021/03/29 05:42:23;;;;;;;12.07;5.35;;;26.40;84.60;;;;;;5047054;28;20024;-43
2021/03/29 05:44:58;;;;;;;9.00;5.90;;;26.40;84.70;;;;;;5046463;28;20037;-43
2021/03/29 05:47:25;;;;;;;8.73;5.22;;;26.30;84.70;;;;;;5046533;28;20024;-42
2021/03/29 05:49:53;;;;;;;7.93;5.35;;;26.30;84.40;;;;;;5046367;28;20026;-46
2021/03/29 05:52:20;;;;;;;17.05;6.10;;;26.30;84.40;;;;;;5046504;28;20020;-44
2021/03/29 05:54:47;;;;;;;12.07;5.63;;;26.30;84.70;;;;;;5046379;28;20032;-46
2021/03/29 05:57:16;;;;;;;9.00;4.85;;;26.30;85.30;;;;;;5046453;28;20329;-45
2021/03/29 05:59:42;;;;;;;9.10;5.65;;;26.30;85.10;;;;;;5046297;28;20225;-46
2021/03/29 06:02:23;;;;;;;10.07;5.45;;;26.30;85.60;;;;;;5046263;28;20013;-44
2021/03/29 06:04:50;;;;;;;11.48;5.15;;;26.30;85.20;;;;;;5046029;28;20117;-44
2021/03/29 06:07:19;;;;;;;6.40;5.32;;;26.30;85.30;;;;;;5046240;28;20043;-44
2021/03/29 06:09:47;;;;;;;9.55;5.75;;;26.30;85.40;;;;;;5045497;28;20063;-55
2021/03/29 06:12:15;;;;;;;10.27;5.90;;;26.20;85.30;;;;;;5046810;28;20033;-44
2021/03/29 06:14:45;;;;;;;8.68;5.57;;;26.30;85.40;;;;;;5045937;28;20017;-43
2021/03/29 06:17:15;;;;;;;9.02;5.28;;;26.20;84.60;;;;;;5045869;28;20198;-43
2021/03/29 06:19:57;;;;;;;10.98;5.50;;;26.20;85.30;;;;;;5045962;28;20037;-42
2021/03/29 06:22:34;;;;;;;9.57;5.75;;;26.20;85.10;;;;;;5045888;28;20060;-42
2021/03/29 06:25:18;;;;;;;8.88;5.75;;;26.20;85.60;;;;;;5046112;28;20071;-42
2021/03/29 06:27:55;;;;;;;9.18;5.40;;;26.30;85.60;;;;;;5045655;28;20049;-42
2021/03/29 06:30:25;;;;;;;8.93;5.72;;;26.20;85.30;;;;;;5045902;28;20106;-44
2021/03/29 06:32:59;;;;;;;14.30;5.90;;;26.20;85.60;;;;;;5045853;28;20022;-42
2021/03/29 06:35:41;;;;;;;10.68;5.22;;;26.20;85.60;;;;;;5045618;28;20278;-42
2021/03/29 06:38:10;;;;;;;8.65;5.63;;;26.20;85.30;;;;;;5045625;28;20076;-44
2021/03/29 06:40:40;;;;;;;12.45;5.97;;;26.20;85.10;;;;;;5045750;28;20025;-47
2021/03/29 06:43:29;;;;;;;10.90;5.75;;;26.20;85.00;;;;;;5045589;28;20024;-42
2021/03/29 06:46:06;;;;;;;10.55;5.80;;;26.20;85.00;;;;;;5045966;28;20033;-43
2021/03/29 06:48:43;;;;;;;10.07;5.90;;;26.20;84.90;;;;;;5045563;28;20318;-44
2021/03/29 06:51:19;;;;;;;15.13;6.00;;;26.20;85.20;;;;;;5045667;28;20030;-48
2021/03/29 06:53:47;;;;;;;12.52;5.38;;;26.20;85.20;;;;;;5045427;28;20025;-43
2021/03/29 06:56:27;;;;;;;10.63;5.57;;;26.20;84.50;;;;;;5045756;28;20029;-44
2021/03/29 06:59:17;;;;;;;9.98;5.60;;;26.20;84.90;;;;;;5045573;28;20014;-43
2021/03/29 07:01:55;;;;;;;10.68;5.60;;;26.20;85.50;;;;;;5045719;28;20053;-42
2021/03/29 07:04:26;;;;;;;12.75;5.88;;;26.20;85.50;;;;;;5045187;28;20028;-42
2021/03/29 07:06:53;;;;;;;9.80;6.25;;;26.20;85.50;;;;;;5045575;28;20317;-48
2021/03/29 07:09:21;;;;;;;12.65;6.13;;;26.20;85.60;;;;;;5045058;28;20029;-47
2021/03/29 07:11:48;;;;;;;8.60;6.10;;;26.10;86.20;;;;;;5045506;28;20032;-44
2021/03/29 07:14:21;;;;;;;11.73;6.10;;;26.10;86.50;;;;;;5044861;28;20025;-42
2021/03/29 07:16:49;;;;;;;8.00;6.00;;;26.10;86.40;;;;;;5045597;28;20037;-51
2021/03/29 07:19:16;;;;;;;14.20;6.00;;;26.20;86.30;;;;;;5045073;28;20014;-46
2021/03/29 07:21:42;;;;;;;9.55;5.30;;;26.10;86.10;;;;;;5045385;28;20033;-47
2021/03/29 07:24:14;;;;;;;10.05;5.70;;;26.10;86.90;;;;;;5044765;28;20025;-48
2021/03/29 07:26:52;;;;;;;7.13;5.68;;;26.10;86.40;;;;;;5045136;28;20104;-38
2021/03/29 07:29:22;;;;;;;11.88;6.20;;;26.10;86.50;;;;;;5044772;28;20248;-42
2021/03/29 07:31:55;;;;;;;8.80;6.45;;;26.10;86.90;;;;;;5045126;28;20025;-45
2021/03/29 07:34:47;;;;;;;15.30;6.30;;;26.10;87.10;;;;;;5044752;28;20041;-49
2021/03/29 07:37:44;;;;;;;11.20;5.60;;;26.10;86.80;;;;;;5043290;28;20032;-53
2021/03/29 07:40:20;;;;;;;11.05;5.45;;;26.10;86.90;;;;;;5044684;28;20246;-53
2021/03/29 07:42:51;;;;;;;10.77;5.47;;;26.10;86.40;;;;;;5044423;28;20047;-53
2021/03/29 07:45:25;;;;;;;10.35;5.43;;;26.10;86.30;;;;;;5044244;28;20036;-50
2021/03/29 07:47:52;;;;;;;11.00;5.20;;;26.10;86.30;;;;;;5044303;28;20048;-49
2021/03/29 07:50:27;;;;;;;9.10;5.38;;;26.10;86.50;;;;;;5044289;28;20025;-49
2021/03/29 07:52:59;;;;;;;8.90;5.38;;;26.10;86.40;;;;;;5044227;28;20336;-44
2021/03/29 07:55:29;;;;;;;8.68;5.70;;;26.10;86.50;;;;;;5044418;28;20032;-47
2021/03/29 07:58:01;;;;;;;11.48;5.32;;;26.10;86.40;;;;;;5044386;28;20024;-43
2021/03/29 08:00:41;;;;;;;9.30;5.05;;;26.10;86.70;;;;;;5044184;28;20056;-43
2021/03/29 08:03:13;;;;;;;11.50;5.25;;;26.10;86.20;;;;;;5044221;28;20041;-44
2021/03/29 08:05:41;;;;;;;8.60;4.72;;;26.10;86.10;;;;;;5044140;28;20310;-43
2021/03/29 08:08:26;;;;;;;12.18;5.13;;;26.10;86.40;;;;;;5044068;28;20025;-48
2021/03/29 08:11:12;;;;;;;14.05;4.72;;;26.10;86.40;;;;;;5044190;28;20049;-51
2021/03/29 08:13:58;;;;;;;7.72;4.10;;;26.10;86.60;;;;;;5044052;28;20021;-46
2021/03/29 08:16:30;;;;;;;10.95;4.68;;;26.10;85.40;;;;;;5044462;28;20037;-47
2021/03/29 08:19:15;;;;;;;9.48;3.80;;;26.10;85.00;;;;;;5043907;28;20040;-43
2021/03/29 08:21:41;;;;;;;9.48;3.83;;;26.10;84.80;;;;;;5044312;28;20279;-46
2021/03/29 08:24:17;;;;;;;6.22;3.58;;;26.10;84.90;;;;;;5043908;28;20024;-47
2021/03/29 08:26:44;;;;;;;5.82;3.63;;;26.10;85.50;;;;;;5044243;28;20021;-46
2021/03/29 08:29:13;;;;;;;7.75;4.10;;;26.10;85.10;;;;;;5043822;28;20021;-44
2021/03/29 08:31:58;;;;;;;5.47;4.18;;;26.10;85.00;;;;;;5043759;28;20080;-46
2021/03/29 08:34:26;;;;;;;9.32;3.95;;;26.10;84.80;;;;;;5043747;28;20049;-45
2021/03/29 08:36:59;;;;;;;7.70;4.10;;;26.10;85.00;;;;;;5043494;28;20022;-44
2021/03/29 08:39:31;;;;;;;7.25;3.75;;;26.10;85.50;;;;;;5043530;28;20047;-40
2021/03/29 08:41:59;;;;;;;9.57;4.10;;;26.10;85.50;;;;;;5043812;28;20093;-44
2021/03/29 08:44:30;;;;;;;7.63;4.13;;;26.00;86.50;;;;;;5043571;28;20093;-46
2021/03/29 08:46:57;;;;;;;5.50;3.70;;;26.10;86.90;;;;;;5043581;28;20048;-43
2021/03/29 08:49:25;;;;;;;9.38;4.10;;;26.10;86.90;;;;;;5043391;28;20306;-49
2021/03/29 08:51:53;;;;;;;6.57;3.90;;;26.10;87.00;;;;;;5044112;28;20249;-46
2021/03/29 08:54:20;;;;;;;7.45;4.25;;;26.10;86.80;;;;;;5043452;28;20037;-45
2021/03/29 08:56:49;;;;;;;10.70;4.05;;;26.00;86.50;;;;;;5044041;28;20246;-43
2021/03/29 08:59:16;;;;;;;7.07;3.47;;;26.00;86.60;;;;;;5043723;28;20088;-46
2021/03/29 09:01:44;;;;;;;11.00;4.15;;;26.00;86.50;;;;;;5043874;28;20293;-48
2021/03/29 09:04:11;;;;;;;6.30;3.53;;;26.00;86.80;;;;;;5043472;28;20093;-52
2021/03/29 09:06:38;;;;;;;6.43;3.97;;;26.00;87.40;;;;;;5043276;28;20325;-43
2021/03/29 09:09:12;;;;;;;8.25;3.83;;;26.00;88.10;;;;;;5043485;28;20029;-47
2021/03/29 09:11:41;;;;;;;10.23;4.20;;;26.00;88.10;;;;;;5043869;28;20076;-44
2021/03/29 09:14:10;;;;;;;9.20;3.83;;;25.90;88.10;;;;;;5043123;28;20332;-46
2021/03/29 09:16:40;;;;;;;7.47;3.63;;;26.00;88.50;;;;;;5043878;28;20029;-47
2021/03/29 09:19:21;;;;;;;7.05;3.50;;;25.90;88.50;;;;;;5043340;28;20033;-45
2021/03/29 09:21:59;;;;;;;7.25;4.05;;;25.90;88.70;;;;;;5043254;28;20029;-48
2021/03/29 09:24:27;;;;;;;11.55;3.80;;;25.90;88.70;;;;;;5043328;28;20021;-44
2021/03/29 09:27:10;;;;;;;9.30;4.00;;;25.90;89.00;;;;;;5043700;28;20030;-44
2021/03/29 09:29:43;;;;;;;5.88;3.50;;;25.90;89.40;;;;;;5043188;28;20029;-45
2021/03/29 09:32:22;;;;;;;8.93;3.58;;;25.90;89.50;;;;;;5043374;28;20053;-45
2021/03/29 09:34:51;;;;;;;9.45;3.17;;;25.90;90.00;;;;;;5042950;28;20123;-44
2021/03/29 09:37:25;;;;;;;10.73;3.97;;;25.90;89.70;;;;;;5043035;28;20068;-43
2021/03/29 09:40:06;;;;;;;9.23;3.60;;;25.90;90.00;;;;;;5043165;28;20332;-46
2021/03/29 09:42:43;;;;;;;8.75;3.85;;;25.80;90.10;;;;;;5043030;28;20032;-48
2021/03/29 09:45:21;;;;;;;5.68;2.63;;;25.80;90.10;;;;;;5045629;28;20033;-48
2021/03/29 09:48:06;;;;;;;5.90;3.42;;;25.80;90.20;;;;;;5046708;28;20367;-52
2021/03/29 09:50:42;;;;;;;5.15;2.72;;;25.80;90.20;;;;;;5046900;28;20029;-46
2021/03/29 09:53:14;;;;;;;6.45;3.00;;;25.80;90.30;;;;;;5046284;28;20029;-49
2021/03/29 09:55:56;;;;;;;7.78;3.30;;;25.80;90.30;;;;;;5046754;28;20029;-46
2021/03/29 09:58:31;;;;;;;5.53;2.73;;;25.80;90.40;;;;;;5046350;28;20101;-45
2021/03/29 10:01:15;;;;;;;6.78;2.90;;;25.80;90.50;;;;;;5046585;28;20263;-44
2021/03/29 10:03:57;;;;;;;5.50;2.90;;;25.80;90.40;;;;;;5046240;28;20022;-48
2021/03/29 10:06:26;;;;;;;8.80;2.83;;;25.80;90.40;;;;;;5046697;28;20025;-47
2021/03/29 10:08:58;;;;;;;5.38;2.70;;;25.80;90.30;;;;;;5046042;28;20337;-44
2021/03/29 10:11:25;;;;;;;;;;;25.80;90.30;;;;;;5046953;28;20021;-41
2021/03/29 10:14:05;;;;;;;5.93;3.00;;;25.80;90.30;;;;;;5046017;28;19905;-43
2021/03/29 10:16:31;;;;;;;5.65;3.38;;;25.80;90.30;;;;;;5046492;28;20405;-46
2021/03/29 10:19:12;;;;;;;5.47;3.30;;;25.80;90.30;;;;;;5046010;28;20084;-43
2021/03/29 10:22:17;;;;;;;7.35;2.75;;;25.70;90.20;;;;;;5046372;28;20017;-45
2021/03/29 10:25:23;;;;;;;4.30;2.70;;;25.70;90.30;;;;;;5045446;28;20278;-50
2021/03/29 10:27:57;;;;;;;6.53;3.40;;;25.70;90.20;;;;;;5045823;28;20021;-42
2021/03/29 10:30:33;;;;;;;5.78;3.15;;;25.70;90.10;;;;;;5045901;28;20021;-43
2021/03/29 10:33:04;;;;;;;7.18;3.60;;;25.70;90.00;;;;;;5045578;28;20318;-46
2021/03/29 10:35:32;;;;;;;8.35;3.53;;;25.70;89.70;;;;;;5045638;28;20270;-43
2021/03/29 10:38:02;;;;;;;6.80;3.28;;;25.70;89.70;;;;;;5045566;28;20060;-44
2021/03/29 10:40:29;;;;;;;16.48;3.97;;;25.70;89.50;;;;;;5045675;28;20025;-47
2021/03/29 10:42:56;;;;;;;6.20;3.97;;;25.70;89.30;;;;;;5045914;28;20055;-49
2021/03/29 10:45:22;;;;;;;9.05;3.88;;;25.70;89.00;;;;;;5045333;28;20076;-43
2021/03/29 10:47:49;;;;;;;9.25;3.60;;;25.60;88.60;;;;;;5045373;28;20021;-48
2021/03/29 10:50:21;;;;;;;8.85;3.63;;;25.70;88.70;;;;;;5045518;28;20037;-43
2021/03/29 10:52:48;;;;;;;8.52;3.47;;;25.70;88.50;;;;;;5045406;28;20217;-47
2021/03/29 10:55:15;;;;;;;7.47;3.50;;;25.70;88.20;;;;;;5044961;28;20033;-51
2021/03/29 10:57:42;;;;;;;6.50;3.42;;;25.70;87.90;;;;;;5045255;28;20068;-47
2021/03/29 11:00:10;;;;;;;4.07;3.33;;;25.70;87.70;;;;;;5045347;28;20033;-42
2021/03/29 11:02:37;;;;;;;11.32;3.70;;;25.70;87.50;;;;;;5045178;28;20017;-43
2021/03/29 11:05:05;;;;;;;6.80;3.20;;;25.70;87.20;;;;;;5045310;28;20036;-42
2021/03/29 11:07:31;;;;;;;8.57;3.20;;;25.70;87.10;;;;;;5045384;28;20021;-43
2021/03/29 11:09:58;;;;;;;7.00;3.70;;;25.70;87.60;;;;;;5045238;28;20029;-43
2021/03/29 11:12:25;;;;;;;10.63;4.72;;;25.70;87.10;;;;;;5045154;28;20048;-43
2021/03/29 11:14:52;;;;;;;6.72;3.80;;;25.70;87.30;;;;;;5044921;28;20033;-44
2021/03/29 11:17:21;;;;;;;14.98;5.63;;;25.70;87.20;;;;;;5045112;28;20013;-43
2021/03/29 11:19:48;;;;;;;11.35;4.43;;;25.70;87.40;;;;;;5044740;28;20313;-45
2021/03/29 11:22:15;;;;;;;8.88;3.80;;;25.70;87.30;;;;;;5045334;28;20266;-43
2021/03/29 11:24:41;;;;;;;7.93;3.67;;;25.70;87.40;;;;;;5043115;28;20041;-45
2021/03/29 11:27:08;;;;;;;7.50;4.03;;;25.70;87.30;;;;;;5043617;28;20048;-44
2021/03/29 11:29:35;;;;;;;7.68;4.00;;;25.70;87.30;;;;;;5044879;28;20024;-44
2021/03/29 11:32:01;;;;;;;8.57;3.92;;;25.70;87.40;;;;;;5044582;28;20017;-46
2021/03/29 11:34:28;;;;;;;7.63;4.03;;;25.70;87.30;;;;;;5044532;28;20098;-54
2021/03/29 11:36:55;;;;;;;5.95;4.03;;;25.70;87.20;;;;;;5044973;28;20026;-58
2021/03/29 11:39:21;;;;;;;7.65;4.00;;;25.70;87.20;;;;;;5044753;28;20317;-45
2021/03/29 11:41:48;;;;;;;5.75;3.85;;;25.80;87.30;;;;;;5045287;28;20262;-43
2021/03/29 11:44:15;;;;;;;6.75;3.92;;;25.80;87.30;;;;;;5044670;28;20020;-45
2021/03/29 11:46:41;;;;;;;5.07;3.67;;;25.80;87.10;;;;;;5045061;28;20285;-44
2021/03/29 11:49:08;;;;;;;4.65;4.10;;;25.80;87.30;;;;;;5044578;28;20262;-43
2021/03/29 11:51:34;;;;;;;13.60;4.10;;;25.80;87.40;;;;;;5044641;28;20369;-42
2021/03/29 11:54:01;;;;;;;9.20;4.05;;;25.80;87.40;;;;;;5044400;28;20013;-46
2021/03/29 11:56:28;;;;;;;10.15;3.83;;;25.80;87.70;;;;;;5044951;28;20029;-43
2021/03/29 11:58:55;;;;;;;6.55;4.13;;;25.80;87.60;;;;;;5044222;28;20040;-43
2021/03/29 12:01:39;;;;;;;6.47;4.30;;;25.80;87.80;;;;;;5044593;28;20026;-46
2021/03/29 12:04:10;;;;;;;7.47;4.72;;;25.80;87.50;;;;;;5044383;28;20021;-46
2021/03/29 12:07:00;;;;;;;6.40;4.00;;;25.80;87.70;;;;;;5043949;28;20056;-49
2021/03/29 12:12:12;;;;;;;11.30;4.20;;;25.80;87.50;;;;;;5044229;28;20083;-44
2021/03/29 12:14:40;;;;;;;6.63;4.40;;;25.80;87.60;;;;;;5044155;28;20025;-44
2021/03/29 12:17:10;;;;;;;7.55;4.70;;;25.80;87.60;;;;;;5044006;28;20017;-44
2021/03/29 12:19:38;;;;;;;6.00;3.92;;;25.90;87.80;;;;;;5044112;28;20041;-41
2021/03/29 12:22:25;;;;;;;5.55;4.25;;;25.90;87.70;;;;;;5044133;28;20226;-47
2021/03/29 12:24:56;;;;;;;8.48;4.03;;;25.90;87.50;;;;;;5044100;28;20060;-44
2021/03/29 12:27:24;;;;;;;5.95;4.00;;;25.90;87.50;;;;;;5043139;28;20080;-46
2021/03/29 12:29:51;;;;;;;5.10;3.92;;;25.90;87.40;;;;;;5043962;28;20041;-45
2021/03/29 12:32:20;;;;;;;7.65;4.22;;;25.90;87.70;;;;;;5044133;28;20022;-44
2021/03/29 12:34:50;;;;;;;7.93;3.97;;;25.90;87.70;;;;;;5043704;28;20049;-46
2021/03/29 12:37:21;;;;;;;8.43;3.80;;;25.90;87.90;;;;;;5043830;28;20087;-41
2021/03/29 12:39:56;;;;;;;10.15;4.07;;;25.90;87.80;;;;;;5044316;28;20017;-45
2021/03/29 12:42:24;;;;;;;5.75;3.72;;;26.00;87.80;;;;;;5043872;28;20021;-47
2021/03/29 12:44:53;;;;;;;5.40;3.42;;;26.00;87.60;;;;;;5044370;28;20029;-46
2021/03/29 12:47:25;;;;;;;5.70;3.33;;;26.00;87.60;;;;;;5044191;28;20092;-43
2021/03/29 12:49:53;;;;;;;8.60;4.07;;;26.00;87.50;;;;;;5044077;28;20026;-44
2021/03/29 12:52:20;;;;;;;7.30;3.80;;;26.00;87.60;;;;;;5044243;28;20396;-42
2021/03/29 12:54:47;;;;;;;5.43;3.40;;;26.00;87.50;;;;;;5045853;28;20029;-46
2021/03/29 12:57:14;;;;;;;6.63;3.58;;;26.10;87.60;;;;;;5046051;28;20025;-44
2021/03/29 12:59:41;;;;;;;6.88;3.80;;;26.10;87.50;;;;;;5042502;28;20017;-47
2021/03/29 13:02:08;;;;;;;7.25;4.45;;;26.10;87.70;;;;;;5043533;28;20014;-45
2021/03/29 13:04:38;;;;;;;6.65;3.63;;;26.10;87.90;;;;;;5043374;28;20056;-43